createdAt,value
2023-03-10T00:01:13.864Z,16.10
2023-03-10T00:03:41.025Z,16.17
2023-03-10T00:06:08.586Z,16.67
2023-03-10T00:08:35.318Z,17.23
2023-03-10T00:11:02.159Z,15.57
2023-03-10T00:13:28.705Z,15.85
2023-03-10T00:15:55.305Z,15.80
2023-03-10T00:18:21.923Z,14.38
2023-03-10T00:20:51.710Z,14.55
2023-03-10T00:23:18.936Z,15.50
2023-03-10T00:25:45.490Z,13.65
2023-03-10T00:28:12.376Z,13.50
2023-03-10T00:30:38.945Z,14.27
2023-03-10T00:33:07.560Z,13.77
2023-03-10T00:35:34.160Z,13.43
2023-03-10T00:38:02.600Z,13.18
2023-03-10T00:40:29.194Z,14.25
2023-03-10T00:42:56.528Z,12.43
2023-03-10T00:45:23.084Z,12.32
2023-03-10T00:47:49.670Z,12.52
2023-03-10T00:50:16.422Z,12.80
2023-03-10T00:52:42.992Z,13.40
2023-03-10T00:55:09.672Z,12.30
2023-03-10T00:57:36.525Z,12.07
2023-03-10T01:00:05.000Z,12.52
2023-03-10T01:02:31.554Z,11.80
2023-03-10T01:04:58.151Z,12.60
2023-03-10T01:07:24.700Z,12.07
2023-03-10T01:09:51.268Z,13.07
2023-03-10T01:12:17.978Z,12.30
2023-03-10T01:14:44.632Z,12.55
2023-03-10T01:17:11.231Z,12.60
2023-03-10T01:19:37.788Z,13.35
2023-03-10T01:22:04.415Z,13.02
2023-03-10T01:24:31.132Z,13.32
2023-03-10T01:26:57.669Z,13.27
2023-03-10T01:29:24.375Z,13.75
2023-03-10T01:31:50.973Z,12.93
2023-03-10T01:34:17.570Z,12.73
2023-03-10T01:36:44.112Z,13.63
2023-03-10T01:39:10.777Z,12.95
2023-03-10T01:41:41.278Z,12.90
2023-03-10T01:44:15.375Z,13.05
2023-03-10T01:46:45.525Z,13.25
2023-03-10T01:49:23.922Z,13.32
2023-03-10T01:51:55.935Z,12.13
2023-03-10T01:54:26.425Z,12.63
2023-03-10T01:56:54.131Z,12.90
2023-03-10T01:59:21.141Z,12.30
2023-03-10T02:01:49.464Z,12.13
2023-03-10T02:04:23.408Z,12.02
2023-03-10T02:06:50.899Z,11.55
2023-03-10T02:09:18.760Z,11.38
2023-03-10T02:11:47.340Z,11.65
2023-03-10T02:14:14.294Z,11.55
2023-03-10T02:16:41.130Z,12.15
2023-03-10T02:19:15.347Z,11.90
2023-03-10T02:21:45.665Z,11.45
2023-03-10T02:24:19.493Z,12.82
2023-03-10T02:26:53.401Z,11.60
2023-03-10T02:29:58.764Z,11.27
2023-03-10T02:32:29.709Z,10.55
2023-03-10T02:34:56.461Z,11.40
2023-03-10T02:37:30.879Z,12.07
2023-03-10T02:39:57.928Z,11.65
2023-03-10T02:42:27.202Z,10.18
2023-03-10T02:44:54.223Z,10.20
2023-03-10T02:47:20.788Z,11.50
2023-03-10T02:49:47.514Z,11.15
2023-03-10T02:52:27.163Z,10.63
2023-03-10T02:54:53.841Z,10.55
2023-03-10T02:57:21.062Z,10.75
2023-03-10T02:59:47.752Z,11.07
2023-03-10T03:02:14.916Z,10.82
2023-03-10T03:04:41.492Z,11.27
2023-03-10T03:07:08.196Z,10.27
2023-03-10T03:09:35.725Z,10.63
2023-03-10T03:12:02.449Z,9.73
2023-03-10T03:14:29.793Z,9.15
2023-03-10T03:16:57.052Z,9.20
2023-03-10T03:19:23.727Z,8.60
2023-03-10T03:21:52.422Z,9.48
2023-03-10T03:24:21.161Z,8.15
2023-03-10T03:26:48.204Z,9.15
2023-03-10T03:29:18.468Z,9.50
2023-03-10T03:31:45.212Z,9.50
2023-03-10T03:34:20.820Z,9.60
2023-03-10T03:36:49.050Z,9.52
2023-03-10T03:39:20.753Z,8.80
2023-03-10T03:41:53.464Z,9.15
2023-03-10T03:44:20.285Z,8.98
2023-03-10T03:46:49.052Z,8.65
2023-03-10T03:49:15.858Z,7.90
2023-03-10T03:51:43.156Z,7.95
2023-03-10T03:54:10.563Z,7.47
2023-03-10T03:56:39.272Z,7.40
2023-03-10T03:59:06.497Z,7.70
2023-03-10T04:01:34.003Z,7.25
2023-03-10T04:04:03.031Z,7.05
2023-03-10T04:06:30.094Z,6.95
2023-03-10T04:08:56.767Z,7.65
2023-03-10T04:11:25.702Z,7.00
2023-03-10T04:13:52.283Z,7.30
2023-03-10T04:16:19.772Z,8.13
2023-03-10T04:18:46.926Z,7.03
2023-03-10T04:21:17.590Z,7.95
2023-03-10T04:23:46.013Z,7.10
2023-03-10T04:26:16.256Z,7.50
2023-03-10T04:28:43.164Z,8.00
2023-03-10T04:31:16.949Z,7.13
2023-03-10T04:33:45.518Z,7.80
2023-03-10T04:36:13.159Z,8.40
2023-03-10T04:38:39.927Z,8.05
2023-03-10T04:41:08.489Z,8.73
2023-03-10T04:43:42.402Z,8.45
2023-03-10T04:46:10.225Z,8.63
2023-03-10T04:48:37.541Z,8.57
2023-03-10T04:51:06.831Z,8.30
2023-03-10T04:53:39.453Z,8.73
2023-03-10T04:56:08.075Z,7.55
2023-03-10T04:58:36.871Z,7.95
2023-03-10T05:01:09.390Z,8.20
2023-03-10T05:03:39.074Z,7.63
2023-03-10T05:06:15.962Z,9.52
2023-03-10T05:08:46.289Z,15.23
2023-03-10T05:11:13.313Z,9.02
2023-03-10T05:13:40.111Z,7.65
2023-03-10T05:16:15.232Z,8.65
2023-03-10T05:18:42.010Z,8.32
2023-03-10T05:21:08.985Z,8.20
2023-03-10T05:23:35.642Z,8.02
2023-03-10T05:26:06.621Z,8.60
2023-03-10T05:28:33.358Z,8.30
2023-03-10T05:31:00.411Z,7.90
2023-03-10T05:33:30.221Z,8.02
2023-03-10T05:35:58.691Z,7.53
2023-03-10T05:38:25.429Z,7.65
2023-03-10T05:40:52.352Z,8.23
2023-03-10T05:43:19.436Z,8.10
2023-03-10T05:45:54.945Z,7.28
2023-03-10T05:48:21.645Z,8.93
2023-03-10T05:51:06.192Z,9.32
2023-03-10T05:53:34.003Z,8.73
2023-03-10T05:56:05.683Z,8.55
2023-03-10T05:58:32.274Z,8.35
2023-03-10T06:01:02.293Z,8.00
2023-03-10T06:03:30.418Z,7.78
2023-03-10T06:05:57.865Z,7.40
2023-03-10T06:08:25.207Z,9.27
2023-03-10T06:10:51.791Z,37.35
2023-03-10T06:13:21.276Z,35.22
2023-03-10T06:15:52.288Z,26.27
2023-03-10T06:18:19.856Z,10.68
2023-03-10T06:20:47.960Z,9.30
2023-03-10T06:23:15.569Z,9.90
2023-03-10T06:25:42.616Z,10.13
2023-03-10T06:28:10.082Z,9.57
2023-03-10T06:30:36.956Z,8.98
2023-03-10T06:33:03.772Z,9.18
2023-03-10T06:35:31.391Z,9.57
2023-03-10T06:37:57.940Z,9.32
2023-03-10T06:40:24.533Z,9.52
2023-03-10T06:42:51.102Z,11.57
2023-03-10T06:45:17.890Z,10.63
2023-03-10T06:47:44.819Z,9.48
2023-03-10T06:50:13.751Z,9.00
2023-03-10T06:52:42.550Z,9.63
2023-03-10T06:55:10.808Z,11.27
2023-03-10T06:57:37.915Z,11.48
2023-03-10T07:00:05.682Z,9.68
2023-03-10T07:02:32.241Z,9.90
2023-03-10T07:04:59.066Z,10.02
2023-03-10T07:07:26.107Z,9.23
2023-03-10T07:09:52.658Z,9.88
2023-03-10T07:12:19.218Z,10.07
2023-03-10T07:14:45.774Z,9.80
2023-03-10T07:17:12.430Z,9.27
2023-03-10T07:19:38.993Z,9.30
2023-03-10T07:22:05.639Z,9.80
2023-03-10T07:24:32.478Z,9.70
2023-03-10T07:27:00.265Z,9.70
2023-03-10T07:29:27.146Z,9.52
2023-03-10T07:31:53.990Z,9.32
2023-03-10T07:34:20.573Z,9.05
2023-03-10T07:36:47.296Z,9.70
2023-03-10T07:39:13.838Z,9.07
2023-03-10T07:41:40.460Z,9.10
2023-03-10T07:44:07.116Z,9.35
2023-03-10T07:46:33.799Z,9.15
2023-03-10T07:49:04.235Z,9.13
2023-03-10T07:51:31.576Z,8.63
2023-03-10T07:53:58.113Z,9.93
2023-03-10T07:56:24.710Z,9.63
2023-03-10T07:58:51.265Z,9.60
2023-03-10T08:01:20.307Z,9.63
2023-03-10T08:03:47.020Z,9.30
2023-03-10T08:06:23.234Z,9.32
2023-03-10T08:08:50.377Z,9.63
2023-03-10T08:11:17.107Z,9.55
2023-03-10T08:13:46.168Z,9.95
2023-03-10T08:16:14.984Z,9.57
2023-03-10T08:18:41.846Z,9.40
2023-03-10T08:21:08.958Z,10.05
2023-03-10T08:23:36.815Z,10.07
2023-03-10T08:26:10.750Z,10.40
2023-03-10T08:28:39.038Z,10.27
2023-03-10T08:31:11.696Z,10.30
2023-03-10T08:33:38.811Z,10.82
2023-03-10T08:36:08.026Z,10.88
2023-03-10T08:38:35.129Z,11.50
2023-03-10T08:41:10.012Z,10.90
2023-03-10T08:43:36.657Z,11.10
2023-03-10T08:46:03.274Z,10.52
2023-03-10T08:48:29.955Z,11.23
2023-03-10T08:50:57.869Z,11.25
2023-03-10T08:53:25.164Z,11.35
2023-03-10T08:55:51.752Z,11.77
2023-03-10T08:58:18.338Z,12.85
2023-03-10T09:00:45.132Z,10.77
2023-03-10T09:03:13.776Z,9.55
2023-03-10T09:05:41.961Z,9.10
2023-03-10T09:08:08.776Z,8.85
2023-03-10T09:10:37.099Z,7.43
2023-03-10T09:13:13.373Z,7.35
2023-03-10T09:15:41.577Z,8.60
2023-03-10T09:18:12.802Z,8.18
2023-03-10T09:20:40.281Z,9.38
2023-03-10T09:23:07.833Z,8.85
2023-03-10T09:25:34.507Z,9.23
2023-03-10T09:28:01.146Z,8.85
2023-03-10T09:30:27.771Z,8.60
2023-03-10T09:32:57.014Z,8.70
2023-03-10T09:35:23.790Z,7.22
2023-03-10T09:37:50.709Z,8.50
2023-03-10T09:40:20.794Z,8.23
2023-03-10T09:42:49.245Z,9.02
2023-03-10T09:45:23.384Z,8.93
2023-03-10T09:48:06.231Z,8.95
2023-03-10T09:50:49.965Z,8.52
2023-03-10T09:53:44.060Z,7.13
2023-03-10T09:56:13.461Z,7.72
2023-03-10T09:58:44.021Z,7.25
2023-03-10T10:01:16.976Z,7.20
2023-03-10T10:03:53.814Z,6.90
2023-03-10T10:06:30.712Z,7.10
2023-03-10T10:09:05.305Z,8.15
2023-03-10T10:11:34.044Z,7.90
2023-03-10T10:14:22.454Z,9.18
2023-03-10T10:17:14.243Z,8.88
2023-03-10T10:19:41.183Z,8.60
2023-03-10T10:22:13.165Z,9.75
2023-03-10T10:24:40.712Z,8.50
2023-03-10T10:27:07.305Z,8.75
2023-03-10T10:29:36.651Z,9.10
2023-03-10T10:32:12.844Z,9.25
2023-03-10T10:34:41.680Z,9.18
2023-03-10T10:37:34.005Z,9.60
2023-03-10T10:40:02.233Z,10.05
2023-03-10T10:42:31.015Z,10.07
2023-03-10T10:45:00.179Z,9.30
2023-03-10T10:47:35.254Z,9.48
2023-03-10T10:50:27.566Z,9.27
2023-03-10T10:53:34.391Z,9.07
2023-03-10T10:56:06.534Z,8.93
2023-03-10T10:58:34.366Z,9.45
2023-03-10T11:01:09.813Z,9.38
2023-03-10T11:03:40.504Z,8.32
2023-03-10T11:06:14.785Z,8.48
2023-03-10T11:08:45.135Z,8.40
2023-03-10T11:11:33.669Z,8.63
2023-03-10T11:14:24.877Z,10.15
2023-03-10T11:17:27.325Z,11.45
2023-03-10T11:20:07.083Z,11.93
2023-03-10T11:22:39.844Z,12.95
2023-03-10T11:25:23.343Z,11.75
2023-03-10T11:28:12.133Z,11.18
2023-03-10T11:30:43.699Z,12.15
2023-03-10T11:33:16.173Z,11.90
2023-03-10T11:35:49.489Z,12.05
2023-03-10T11:38:30.765Z,12.38
2023-03-10T11:40:59.350Z,11.68
2023-03-10T11:43:51.009Z,11.65
2023-03-10T11:46:44.590Z,11.68
2023-03-10T11:49:12.686Z,11.70
2023-03-10T11:51:50.050Z,11.40
2023-03-10T11:54:27.086Z,11.32
2023-03-10T11:56:54.372Z,11.45
2023-03-10T11:59:27.118Z,11.25
2023-03-10T12:02:24.640Z,11.68
2023-03-10T12:04:54.516Z,10.60
2023-03-10T12:07:40.261Z,10.95
2023-03-10T12:10:12.911Z,10.52
2023-03-10T12:12:44.862Z,10.20
2023-03-10T12:15:23.621Z,10.77
2023-03-10T12:17:51.671Z,11.18
2023-03-10T12:20:18.152Z,10.65
2023-03-10T12:22:55.319Z,11.02
2023-03-10T12:25:27.888Z,10.52
2023-03-10T12:28:18.925Z,10.77
2023-03-10T12:31:22.774Z,10.05
2023-03-10T12:33:50.590Z,9.27
2023-03-10T12:36:37.834Z,8.98
2023-03-10T12:39:30.346Z,9.27
2023-03-10T12:42:26.921Z,8.60
2023-03-10T12:44:58.112Z,8.43
2023-03-10T12:47:35.279Z,7.97
2023-03-10T12:50:20.269Z,8.38
2023-03-10T12:52:53.260Z,7.95
2023-03-10T12:55:22.672Z,7.20
2023-03-10T12:58:04.354Z,7.60
2023-03-10T13:00:50.901Z,7.05
2023-03-10T13:03:43.550Z,6.47
2023-03-10T13:06:20.991Z,6.88
2023-03-10T13:09:10.138Z,5.88
2023-03-10T13:11:43.160Z,5.97
2023-03-10T13:14:13.280Z,6.10
2023-03-10T13:16:39.943Z,5.63
2023-03-10T13:19:06.690Z,5.70
2023-03-10T13:21:38.140Z,5.53
2023-03-10T13:24:28.922Z,5.53
2023-03-10T13:27:18.962Z,6.13
2023-03-10T13:30:05.735Z,5.13
2023-03-10T13:32:33.015Z,5.05
2023-03-10T13:35:13.017Z,5.35
2023-03-10T13:37:39.596Z,4.72
2023-03-10T13:40:10.980Z,4.90
2023-03-10T13:42:44.356Z,5.40
2023-03-10T13:45:22.352Z,5.05
2023-03-10T13:47:49.793Z,4.70
2023-03-10T13:50:17.063Z,5.60
2023-03-10T13:52:54.860Z,5.50
2023-03-10T13:55:21.533Z,5.30
2023-03-10T13:57:48.528Z,5.35
2023-03-10T14:00:20.783Z,5.60
2023-03-10T14:02:48.811Z,5.95
2023-03-10T14:05:41.728Z,5.00
2023-03-10T14:08:17.868Z,5.15
2023-03-10T14:10:46.009Z,4.72
2023-03-10T14:13:38.622Z,5.07
2023-03-10T14:16:05.424Z,4.90
2023-03-10T14:18:37.081Z,4.95
2023-03-10T14:21:23.428Z,4.68
2023-03-10T14:23:51.871Z,4.95
2023-03-10T14:26:18.451Z,5.03
2023-03-10T14:28:45.149Z,5.40
2023-03-10T14:31:21.160Z,5.45
2023-03-10T14:33:48.067Z,4.78
2023-03-10T14:36:14.681Z,4.78
2023-03-10T14:38:41.484Z,5.68
2023-03-10T14:41:08.141Z,5.30
2023-03-10T14:43:35.664Z,5.18
2023-03-10T14:46:02.643Z,4.70
2023-03-10T14:48:31.084Z,5.30
2023-03-10T14:50:57.649Z,4.80
2023-03-10T14:53:25.931Z,5.07
2023-03-10T14:55:55.437Z,5.05
2023-03-10T14:58:24.475Z,5.95
2023-03-10T15:00:51.103Z,8.95
2023-03-10T15:03:17.713Z,11.48
2023-03-10T15:05:48.644Z,15.95
2023-03-10T15:08:16.851Z,8.25
2023-03-10T15:10:48.146Z,7.25
2023-03-10T15:13:15.158Z,6.47
2023-03-10T15:15:43.643Z,6.63
2023-03-10T15:18:16.217Z,7.47
2023-03-10T15:20:42.868Z,9.43
2023-03-10T15:23:10.155Z,6.35
2023-03-10T15:25:37.894Z,6.32
2023-03-10T15:28:04.505Z,6.63
2023-03-10T15:30:34.051Z,6.75
2023-03-10T15:33:01.294Z,8.48
2023-03-10T15:35:29.323Z,8.15
2023-03-10T15:37:56.984Z,8.13
2023-03-10T15:40:30.812Z,8.38
2023-03-10T15:42:58.359Z,8.85
2023-03-10T15:45:26.681Z,8.65
2023-03-10T15:47:53.374Z,9.55
2023-03-10T15:50:20.907Z,9.43
2023-03-10T15:53:05.794Z,10.48
2023-03-10T15:55:32.553Z,8.80
2023-03-10T15:57:59.173Z,9.15
2023-03-10T16:00:26.524Z,8.02
2023-03-10T16:02:53.169Z,7.32
2023-03-10T16:05:19.755Z,7.68
2023-03-10T16:07:46.648Z,7.55
2023-03-10T16:10:15.622Z,8.48
2023-03-10T16:12:42.360Z,8.45
2023-03-10T16:15:09.869Z,7.63
2023-03-10T16:17:36.615Z,7.70
2023-03-10T16:20:08.963Z,8.52
2023-03-10T16:22:40.366Z,8.80
2023-03-10T16:25:17.705Z,8.75
2023-03-10T16:27:45.686Z,8.93
2023-03-10T16:30:14.602Z,8.60
2023-03-10T16:32:45.212Z,8.77
2023-03-10T16:35:12.173Z,9.02
2023-03-10T16:37:38.806Z,9.60
2023-03-10T16:40:06.235Z,9.10
2023-03-10T16:42:35.921Z,9.32
2023-03-10T16:45:03.777Z,11.35
2023-03-10T16:47:30.421Z,10.93
2023-03-10T16:49:57.140Z,11.07
2023-03-10T16:52:23.770Z,11.55
2023-03-10T16:54:50.365Z,11.48
2023-03-10T16:57:16.972Z,11.20
2023-03-10T16:59:44.739Z,11.25
2023-03-10T17:02:16.151Z,10.88
2023-03-10T17:04:43.203Z,12.43
2023-03-10T17:07:09.791Z,11.45
2023-03-10T17:09:38.036Z,11.27
2023-03-10T17:12:05.066Z,10.85
2023-03-10T17:14:31.668Z,10.90
2023-03-10T17:16:58.437Z,11.15
2023-03-10T17:19:29.876Z,12.10
2023-03-10T17:21:57.540Z,12.27
2023-03-10T17:24:24.361Z,11.35
2023-03-10T17:26:50.953Z,11.40
2023-03-10T17:29:18.163Z,10.95
2023-03-10T17:31:48.927Z,10.98
2023-03-10T17:34:15.724Z,10.32
2023-03-10T17:36:42.289Z,11.88
2023-03-10T17:39:08.936Z,11.32
2023-03-10T17:41:36.196Z,10.88
2023-03-10T17:44:04.809Z,9.88
2023-03-10T17:46:31.840Z,9.45
2023-03-10T17:48:58.448Z,9.77
2023-03-10T17:51:27.361Z,9.68
2023-03-10T17:53:58.298Z,9.80
2023-03-10T17:56:25.773Z,9.48
2023-03-10T17:58:56.096Z,9.85
2023-03-10T18:01:26.579Z,9.93
2023-03-10T18:03:54.150Z,9.90
2023-03-10T18:06:22.745Z,9.23
2023-03-10T18:08:50.236Z,9.50
2023-03-10T18:11:17.581Z,8.90
2023-03-10T18:13:44.545Z,9.75
2023-03-10T18:16:17.639Z,8.38
2023-03-10T18:18:45.036Z,9.07
2023-03-10T18:21:12.959Z,8.73
2023-03-10T18:23:39.553Z,8.52
2023-03-10T18:26:10.489Z,9.15
2023-03-10T18:28:37.637Z,9.23
2023-03-10T18:31:09.560Z,9.25
2023-03-10T18:33:37.202Z,9.70
2023-03-10T18:36:06.112Z,8.98
2023-03-10T18:38:33.346Z,9.43
2023-03-10T18:41:01.430Z,11.70
2023-03-10T18:43:29.385Z,13.55
2023-03-10T18:45:56.186Z,12.35
2023-03-10T18:48:25.726Z,11.35
2023-03-10T18:50:52.912Z,10.80
2023-03-10T18:53:19.712Z,9.40
2023-03-10T18:55:46.503Z,9.55
2023-03-10T18:58:13.260Z,9.82
2023-03-10T19:00:40.228Z,12.15
2023-03-10T19:03:07.392Z,10.77
2023-03-10T19:05:34.170Z,9.50
2023-03-10T19:08:00.741Z,8.70
2023-03-10T19:10:27.364Z,8.93
2023-03-10T19:12:54.161Z,9.68
2023-03-10T19:15:20.808Z,10.15
2023-03-10T19:17:47.443Z,9.32
2023-03-10T19:20:14.761Z,9.35
2023-03-10T19:22:42.415Z,10.85
2023-03-10T19:25:12.087Z,10.82
2023-03-10T19:27:42.138Z,11.68
2023-03-10T19:30:11.175Z,9.90
2023-03-10T19:32:41.046Z,10.57
2023-03-10T19:35:08.969Z,9.10
2023-03-10T19:37:36.747Z,9.95
2023-03-10T19:40:06.135Z,18.52
2023-03-10T19:42:34.279Z,20.58
2023-03-10T19:45:01.330Z,18.38
2023-03-10T19:47:30.959Z,16.02
2023-03-10T19:49:57.519Z,12.32
2023-03-10T19:52:24.129Z,12.15
2023-03-10T19:54:51.304Z,12.10
2023-03-10T19:57:18.040Z,12.70
2023-03-10T19:59:44.591Z,12.18
2023-03-10T20:02:13.714Z,12.48
2023-03-10T20:04:40.574Z,13.13
2023-03-10T20:07:07.200Z,15.82
2023-03-10T20:09:34.048Z,13.50
2023-03-10T20:12:00.644Z,13.60
2023-03-10T20:14:27.687Z,12.70
2023-03-10T20:16:54.926Z,12.55
2023-03-10T20:19:22.918Z,13.35
2023-03-10T20:21:50.623Z,12.73
2023-03-10T20:24:18.047Z,13.50
2023-03-10T20:26:45.042Z,13.20
2023-03-10T20:29:12.450Z,16.27
2023-03-10T20:31:39.101Z,12.73
2023-03-10T20:34:08.057Z,18.25
2023-03-10T20:36:34.621Z,13.80
2023-03-10T20:39:01.170Z,14.07
2023-03-10T20:41:27.802Z,12.88
2023-03-10T20:43:55.332Z,14.05
2023-03-10T20:46:22.917Z,14.30
2023-03-10T20:48:50.692Z,12.68
2023-03-10T20:51:19.157Z,13.48
2023-03-10T20:53:45.932Z,13.60
2023-03-10T20:56:14.324Z,13.82
2023-03-10T20:58:41.128Z,14.02
2023-03-10T21:01:14.784Z,13.15
2023-03-10T21:03:41.422Z,12.07
2023-03-10T21:06:08.081Z,12.55
2023-03-10T21:08:34.852Z,12.68
2023-03-10T21:11:01.410Z,14.05
2023-03-10T21:13:28.282Z,12.88
2023-03-10T21:15:54.954Z,13.43
2023-03-10T21:18:21.588Z,13.35
2023-03-10T21:20:48.174Z,13.43
2023-03-10T21:23:14.755Z,13.00
2023-03-10T21:25:41.761Z,13.60
2023-03-10T21:28:08.726Z,14.18
2023-03-10T21:30:35.397Z,13.95
2023-03-10T21:33:02.012Z,13.35
2023-03-10T21:35:31.955Z,13.65
2023-03-10T21:37:59.481Z,14.80
2023-03-10T21:40:26.730Z,14.35
2023-03-10T21:42:53.304Z,14.10
2023-03-10T21:45:21.873Z,14.20
2023-03-10T21:47:48.564Z,13.43
2023-03-10T21:50:16.035Z,14.07
2023-03-10T21:52:43.285Z,15.13
2023-03-10T21:55:23.039Z,13.50
2023-03-10T21:57:50.034Z,14.18
2023-03-10T22:00:19.865Z,13.93
2023-03-10T22:02:47.366Z,14.38
2023-03-10T22:05:16.560Z,14.27
2023-03-10T22:07:43.435Z,14.57
2023-03-10T22:10:11.427Z,13.07
2023-03-10T22:12:38.158Z,13.10
2023-03-10T22:15:06.804Z,14.23
2023-03-10T22:17:33.771Z,12.77
2023-03-10T22:20:01.766Z,12.70
2023-03-10T22:22:28.339Z,12.05
2023-03-10T22:24:55.010Z,12.60
2023-03-10T22:27:21.574Z,13.25
2023-03-10T22:29:48.184Z,12.88
2023-03-10T22:32:14.830Z,12.80
2023-03-10T22:34:42.237Z,11.18
2023-03-10T22:37:10.399Z,12.48
2023-03-10T22:39:37.490Z,12.32
2023-03-10T22:42:04.899Z,12.23
2023-03-10T22:44:36.400Z,12.73
2023-03-10T22:47:03.612Z,13.43
2023-03-10T22:49:31.501Z,11.90
2023-03-10T22:51:58.408Z,12.25
2023-03-10T22:54:25.292Z,12.10
2023-03-10T22:56:52.007Z,12.52
2023-03-10T22:59:22.893Z,12.25
2023-03-10T23:01:49.629Z,12.20
2023-03-10T23:04:16.267Z,12.20
2023-03-10T23:06:42.948Z,13.13
2023-03-10T23:09:10.970Z,13.45
2023-03-10T23:11:38.007Z,13.40
2023-03-10T23:14:04.564Z,13.40
2023-03-10T23:16:36.632Z,12.30
2023-03-10T23:19:06.074Z,12.07
2023-03-10T23:21:35.089Z,13.23
2023-03-10T23:24:01.767Z,12.68
2023-03-10T23:26:34.183Z,12.82
2023-03-10T23:29:02.972Z,13.65
2023-03-10T23:31:29.634Z,14.30
2023-03-10T23:33:56.236Z,13.15
2023-03-10T23:36:22.954Z,12.75
2023-03-10T23:38:50.723Z,12.02
2023-03-10T23:41:18.487Z,11.73
2023-03-10T23:43:45.195Z,11.00
2023-03-10T23:46:11.943Z,11.23
2023-03-10T23:48:38.728Z,10.45
2023-03-10T23:51:05.509Z,11.55
2023-03-10T23:53:32.143Z,9.98
2023-03-10T23:55:59.034Z,9.80
2023-03-10T23:58:28.066Z,10.15
